createdAt,value
2022-10-22T00:00:55.726Z,11.63
2022-10-22T00:03:22.377Z,11.73
2022-10-22T00:05:48.811Z,11.79
2022-10-22T00:08:15.221Z,11.75
2022-10-22T00:10:42.306Z,11.70
2022-10-22T00:13:08.805Z,11.67
2022-10-22T00:15:35.261Z,11.77
2022-10-22T00:18:01.719Z,11.75
2022-10-22T00:20:28.127Z,11.76
2022-10-22T00:22:54.620Z,11.80
2022-10-22T00:25:21.209Z,11.75
2022-10-22T00:27:47.613Z,11.75
2022-10-22T00:30:14.004Z,11.67
2022-10-22T00:32:40.622Z,11.67
2022-10-22T00:35:07.508Z,11.66
2022-10-22T00:37:33.948Z,11.72
2022-10-22T00:40:00.381Z,11.68
2022-10-22T00:42:30.157Z,11.67
2022-10-22T00:45:11.908Z,11.69
2022-10-22T00:47:47.854Z,11.67
2022-10-22T00:50:19.078Z,11.73
2022-10-22T00:52:46.345Z,11.71
2022-10-22T00:55:13.775Z,11.76
2022-10-22T00:57:40.692Z,11.71
2022-10-22T01:00:07.767Z,11.70
2022-10-22T01:02:34.253Z,11.69
2022-10-22T01:05:00.650Z,11.67
2022-10-22T01:07:27.173Z,11.63
2022-10-22T01:10:08.372Z,11.70
2022-10-22T01:12:50.697Z,11.81
2022-10-22T01:15:25.197Z,11.91
2022-10-22T01:18:10.678Z,11.91
2022-10-22T01:20:55.955Z,11.92
2022-10-22T01:23:40.676Z,11.89
2022-10-22T01:26:16.488Z,11.96
2022-10-22T01:28:54.074Z,11.87
2022-10-22T01:31:23.123Z,11.83
2022-10-22T01:33:51.487Z,11.86
2022-10-22T01:36:19.092Z,11.79
2022-10-22T01:38:47.380Z,11.75
2022-10-22T01:41:14.375Z,11.77
2022-10-22T01:43:40.828Z,11.76
2022-10-22T01:46:09.980Z,11.80
2022-10-22T01:48:42.552Z,11.85
2022-10-22T01:51:27.276Z,11.86
2022-10-22T01:54:06.860Z,11.88
2022-10-22T01:56:45.107Z,11.90
2022-10-22T01:59:30.317Z,11.85
2022-10-22T02:02:13.337Z,11.87
2022-10-22T02:04:59.969Z,11.91
2022-10-22T02:07:31.642Z,11.93
2022-10-22T02:09:59.488Z,12.02
2022-10-22T02:12:29.360Z,12.09
2022-10-22T02:14:57.417Z,12.09
2022-10-22T02:17:26.961Z,12.09
2022-10-22T02:19:58.827Z,12.14
2022-10-22T02:22:27.120Z,12.29
2022-10-22T02:24:53.732Z,12.33
2022-10-22T02:27:30.222Z,12.34
2022-10-22T02:30:05.692Z,12.35
2022-10-22T02:32:41.892Z,12.39
2022-10-22T02:35:13.531Z,12.46
2022-10-22T02:37:40.321Z,12.50
2022-10-22T02:40:07.972Z,12.35
2022-10-22T02:42:35.077Z,12.35
2022-10-22T02:45:01.505Z,12.36
2022-10-22T02:47:27.913Z,12.31
2022-10-22T02:49:54.380Z,12.08
2022-10-22T02:52:20.797Z,12.13
2022-10-22T02:54:47.228Z,12.17
2022-10-22T02:57:13.657Z,12.19
2022-10-22T02:59:40.114Z,12.20
2022-10-22T03:02:06.532Z,12.17
2022-10-22T03:04:33.000Z,12.10
2022-10-22T03:06:59.555Z,12.09
2022-10-22T03:09:26.321Z,12.03
2022-10-22T03:11:52.780Z,12.05
2022-10-22T03:14:19.323Z,12.12
2022-10-22T03:16:46.303Z,12.17
2022-10-22T03:19:12.964Z,12.23
2022-10-22T03:22:00.404Z,12.32
2022-10-22T03:24:35.557Z,12.31
2022-10-22T03:27:02.381Z,12.44
2022-10-22T03:29:31.139Z,12.49
2022-10-22T03:31:57.520Z,12.43
2022-10-22T03:34:24.070Z,12.45
2022-10-22T03:36:51.956Z,12.45
2022-10-22T03:39:19.936Z,12.45
2022-10-22T03:41:48.125Z,12.47
2022-10-22T03:44:16.168Z,12.45
2022-10-22T03:46:42.592Z,12.44
2022-10-22T03:49:09.179Z,12.47
2022-10-22T03:51:35.904Z,12.51
2022-10-22T03:54:03.637Z,12.56
2022-10-22T03:56:30.521Z,12.61
2022-10-22T03:58:59.132Z,12.63
2022-10-22T04:01:27.329Z,12.61
2022-10-22T04:03:54.192Z,12.39
2022-10-22T04:06:20.880Z,12.33
2022-10-22T04:08:47.927Z,12.28
2022-10-22T04:11:15.573Z,12.29
2022-10-22T04:13:42.764Z,12.38
2022-10-22T04:16:16.101Z,12.20
2022-10-22T04:18:43.513Z,12.25
2022-10-22T04:21:11.773Z,12.22
2022-10-22T04:23:38.560Z,12.16
2022-10-22T04:26:07.664Z,12.15
2022-10-22T04:28:35.168Z,12.20
2022-10-22T04:31:08.218Z,12.25
2022-10-22T04:33:34.744Z,12.19
2022-10-22T04:36:06.673Z,12.21
2022-10-22T04:38:33.100Z,12.27
2022-10-22T04:41:09.352Z,12.28
2022-10-22T04:43:35.844Z,12.29
2022-10-22T04:46:02.255Z,12.32
2022-10-22T04:48:28.652Z,12.33
2022-10-22T04:50:58.787Z,12.28
2022-10-22T04:53:25.179Z,12.25
2022-10-22T04:55:51.636Z,12.27
2022-10-22T04:58:18.021Z,12.30
2022-10-22T05:00:44.538Z,12.30
2022-10-22T05:03:11.049Z,12.30
2022-10-22T05:05:37.561Z,12.23
2022-10-22T05:08:04.195Z,12.27
2022-10-22T05:10:30.714Z,12.26
2022-10-22T05:12:57.098Z,12.29
2022-10-22T05:15:23.501Z,12.20
2022-10-22T05:17:49.950Z,12.06
2022-10-22T05:20:16.402Z,12.04
2022-10-22T05:22:42.816Z,12.12
2022-10-22T05:25:09.576Z,12.22
2022-10-22T05:27:35.969Z,12.21
2022-10-22T05:30:02.474Z,12.26
2022-10-22T05:32:28.845Z,12.35
2022-10-22T05:34:55.240Z,12.40
2022-10-22T05:37:22.092Z,12.34
2022-10-22T05:39:54.286Z,12.36
2022-10-22T05:42:24.089Z,12.45
2022-10-22T05:44:50.891Z,12.30
2022-10-22T05:47:17.273Z,12.15
2022-10-22T05:49:43.682Z,12.09
2022-10-22T05:52:10.066Z,11.97
2022-10-22T05:54:36.467Z,11.91
2022-10-22T05:57:02.897Z,11.90
2022-10-22T05:59:29.400Z,11.91
2022-10-22T06:01:55.871Z,11.92
2022-10-22T06:04:22.333Z,11.92
2022-10-22T06:06:53.242Z,11.91
2022-10-22T06:09:27.493Z,11.93
2022-10-22T06:11:55.592Z,11.98
2022-10-22T06:14:22.249Z,11.90
2022-10-22T06:16:49.455Z,11.88
2022-10-22T06:19:18.612Z,11.99
2022-10-22T06:21:45.548Z,11.94
2022-10-22T06:24:12.656Z,11.92
2022-10-22T06:26:39.993Z,12.13
2022-10-22T06:29:07.181Z,12.09
2022-10-22T06:31:37.220Z,12.10
2022-10-22T06:34:10.177Z,12.09
2022-10-22T06:36:36.789Z,12.17
2022-10-22T06:39:04.416Z,12.32
2022-10-22T06:41:31.068Z,12.51
2022-10-22T06:43:58.060Z,12.52
2022-10-22T06:46:25.108Z,12.46
2022-10-22T06:48:59.238Z,12.52
2022-10-22T06:51:26.673Z,12.54
2022-10-22T06:53:54.525Z,12.58
2022-10-22T06:56:23.588Z,12.45
2022-10-22T06:58:52.239Z,12.45
2022-10-22T07:01:21.510Z,12.40
2022-10-22T07:03:51.104Z,12.45
2022-10-22T07:06:18.318Z,12.47
2022-10-22T07:08:44.750Z,12.53
2022-10-22T07:11:14.642Z,12.61
2022-10-22T07:13:41.396Z,12.63
2022-10-22T07:16:08.696Z,12.73
2022-10-22T07:18:36.846Z,12.78
2022-10-22T07:21:04.576Z,12.75
2022-10-22T07:23:31.257Z,12.75
2022-10-22T07:25:57.843Z,12.81
2022-10-22T07:28:24.732Z,12.77
2022-10-22T07:30:51.285Z,12.69
2022-10-22T07:33:17.783Z,12.79
2022-10-22T07:35:44.262Z,12.81
2022-10-22T07:38:10.730Z,12.79
2022-10-22T07:40:37.169Z,12.83
2022-10-22T07:43:04.321Z,12.75
2022-10-22T07:45:30.941Z,12.78
2022-10-22T07:47:57.487Z,12.83
2022-10-22T07:50:23.989Z,12.87
2022-10-22T07:52:50.999Z,12.86
2022-10-22T07:55:17.952Z,12.94
2022-10-22T07:57:44.361Z,13.04
2022-10-22T08:00:11.305Z,13.03
2022-10-22T08:02:40.461Z,13.10
2022-10-22T08:05:07.728Z,13.12
2022-10-22T08:07:34.309Z,13.12
2022-10-22T08:10:00.775Z,13.10
2022-10-22T08:12:27.377Z,13.20
2022-10-22T08:14:53.915Z,13.17
2022-10-22T08:17:20.348Z,13.19
2022-10-22T08:19:46.855Z,13.25
2022-10-22T08:22:13.381Z,13.27
2022-10-22T08:24:40.041Z,13.34
2022-10-22T08:27:06.461Z,13.51
2022-10-22T08:29:32.929Z,13.67
2022-10-22T08:31:59.449Z,13.78
2022-10-22T08:34:25.843Z,13.94
2022-10-22T08:36:52.257Z,14.05
2022-10-22T08:39:18.657Z,14.13
2022-10-22T08:42:22.492Z,14.21
2022-10-22T08:44:57.295Z,14.35
2022-10-22T08:47:42.537Z,14.40
2022-10-22T08:50:24.114Z,14.40
2022-10-22T08:52:57.385Z,14.52
2022-10-22T08:55:25.225Z,14.60
2022-10-22T08:58:16.052Z,14.73
2022-10-22T09:00:46.495Z,14.86
2022-10-22T09:03:40.066Z,14.90
2022-10-22T09:06:27.285Z,15.03
2022-10-22T09:08:57.074Z,14.98
2022-10-22T09:11:36.018Z,15.07
2022-10-22T09:14:03.650Z,15.12
2022-10-22T09:16:56.140Z,15.17
2022-10-22T09:19:35.603Z,15.27
2022-10-22T09:22:18.272Z,15.24
2022-10-22T09:24:50.233Z,15.25
2022-10-22T09:27:19.938Z,15.26
2022-10-22T09:29:47.984Z,15.21
2022-10-22T09:32:16.264Z,15.23
2022-10-22T09:34:48.069Z,15.28
2022-10-22T09:37:19.641Z,15.40
2022-10-22T09:39:52.774Z,15.52
2022-10-22T09:42:20.920Z,15.59
2022-10-22T09:44:57.365Z,15.59
2022-10-22T09:47:42.724Z,15.69
2022-10-22T09:50:20.415Z,15.80
2022-10-22T09:52:58.154Z,15.82
2022-10-22T09:55:25.845Z,15.93
2022-10-22T09:57:58.146Z,16.08
2022-10-22T10:00:26.365Z,16.15
2022-10-22T10:02:57.320Z,16.11
2022-10-22T10:05:32.887Z,16.20
2022-10-22T10:08:07.873Z,16.24
2022-10-22T10:10:45.396Z,16.27
2022-10-22T10:13:24.008Z,16.42
2022-10-22T10:16:00.465Z,16.60
2022-10-22T10:18:57.087Z,16.69
2022-10-22T10:21:43.833Z,16.82
2022-10-22T10:24:28.833Z,16.87
2022-10-22T10:27:19.969Z,16.83
2022-10-22T10:30:17.997Z,16.92
2022-10-22T10:33:05.461Z,16.97
2022-10-22T10:35:41.016Z,17.08
2022-10-22T10:38:23.604Z,16.99
2022-10-22T10:41:07.517Z,17.15
2022-10-22T10:44:02.913Z,17.29
2022-10-22T10:46:58.373Z,17.42
2022-10-22T10:49:31.276Z,17.34
2022-10-22T10:52:17.520Z,17.45
2022-10-22T10:54:52.680Z,17.49
2022-10-22T10:57:30.958Z,17.38
2022-10-22T10:59:57.280Z,17.47
2022-10-22T11:02:42.372Z,17.53
2022-10-22T11:05:20.789Z,17.52
2022-10-22T11:08:13.940Z,17.48
2022-10-22T11:10:44.281Z,17.45
2022-10-22T11:13:45.425Z,17.51
2022-10-22T11:16:23.288Z,17.51
2022-10-22T11:19:03.280Z,17.53
2022-10-22T11:21:39.996Z,17.59
2022-10-22T11:24:28.010Z,17.55
2022-10-22T11:27:21.654Z,17.69
2022-10-22T11:29:55.974Z,17.60
2022-10-22T11:32:26.340Z,17.58
2022-10-22T11:35:01.362Z,17.68
2022-10-22T11:37:34.825Z,17.90
2022-10-22T11:40:07.698Z,17.93
2022-10-22T11:42:38.064Z,17.73
2022-10-22T11:45:28.558Z,17.67
2022-10-22T11:47:57.697Z,17.76
2022-10-22T11:50:43.981Z,17.75
2022-10-22T11:53:13.391Z,17.45
2022-10-22T11:55:45.322Z,17.39
2022-10-22T11:58:39.149Z,17.42
2022-10-22T12:01:08.401Z,17.69
2022-10-22T12:03:34.789Z,17.80
2022-10-22T12:06:15.258Z,17.73
2022-10-22T12:09:05.872Z,17.66
2022-10-22T12:11:50.081Z,17.59
2022-10-22T12:14:29.488Z,17.34
2022-10-22T12:17:08.460Z,17.36
2022-10-22T12:19:37.819Z,17.33
2022-10-22T12:22:07.684Z,17.18
2022-10-22T12:24:40.808Z,17.21
2022-10-22T12:27:22.705Z,17.09
2022-10-22T12:29:57.486Z,17.02
2022-10-22T12:32:33.524Z,17.02
2022-10-22T12:35:06.417Z,17.21
2022-10-22T12:37:35.308Z,17.32
2022-10-22T12:40:01.768Z,17.45
2022-10-22T12:42:28.204Z,17.76
2022-10-22T12:44:56.380Z,17.74
2022-10-22T12:47:22.844Z,17.76
2022-10-22T12:49:50.641Z,17.88
2022-10-22T12:52:21.213Z,17.84
2022-10-22T12:54:52.292Z,17.93
2022-10-22T12:57:20.957Z,18.04
2022-10-22T12:59:51.099Z,18.13
2022-10-22T13:02:24.508Z,18.22
2022-10-22T13:05:06.096Z,18.12
2022-10-22T13:07:41.946Z,18.10
2022-10-22T13:10:23.180Z,18.15
2022-10-22T13:12:55.869Z,18.23
2022-10-22T13:15:28.557Z,18.25
2022-10-22T13:18:16.183Z,18.32
2022-10-22T13:20:56.728Z,18.28
2022-10-22T13:23:26.786Z,18.32
2022-10-22T13:26:14.776Z,18.40
2022-10-22T13:28:41.939Z,18.42
2022-10-22T13:31:17.258Z,18.55
2022-10-22T13:33:45.813Z,18.65
2022-10-22T13:36:16.366Z,18.66
2022-10-22T13:38:43.953Z,18.81
2022-10-22T13:41:30.870Z,18.90
2022-10-22T13:43:58.113Z,19.10
2022-10-22T13:46:25.832Z,19.21
2022-10-22T13:48:54.927Z,19.45
2022-10-22T13:51:23.076Z,19.91
2022-10-22T13:53:51.692Z,20.35
2022-10-22T13:56:19.902Z,20.72
2022-10-22T13:58:47.224Z,20.19
2022-10-22T14:01:21.191Z,20.64
2022-10-22T14:03:49.745Z,20.20
2022-10-22T14:06:18.241Z,20.20
2022-10-22T14:08:48.304Z,20.20
2022-10-22T14:11:14.769Z,20.14
2022-10-22T14:13:41.214Z,20.15
2022-10-22T14:16:14.785Z,20.00
2022-10-22T14:18:41.295Z,19.92
2022-10-22T14:21:08.253Z,20.34
2022-10-22T14:23:36.383Z,20.77
2022-10-22T14:26:03.892Z,21.11
2022-10-22T14:28:34.158Z,21.56
2022-10-22T14:31:03.725Z,21.94
2022-10-22T14:33:32.673Z,22.22
2022-10-22T14:36:00.007Z,22.04
2022-10-22T14:38:26.516Z,21.99
2022-10-22T14:40:53.004Z,21.60
2022-10-22T14:43:24.976Z,21.48
2022-10-22T14:45:52.108Z,21.27
2022-10-22T14:50:47.155Z,21.17
2022-10-22T14:53:16.529Z,21.22
2022-10-22T14:55:44.325Z,21.30
2022-10-22T14:58:12.259Z,21.62
2022-10-22T15:00:41.230Z,21.13
2022-10-22T15:03:07.900Z,21.24
2022-10-22T15:05:36.134Z,20.54
2022-10-22T15:08:02.594Z,20.14
2022-10-22T15:10:29.268Z,20.27
2022-10-22T15:12:55.671Z,20.86
2022-10-22T15:15:23.210Z,21.18
2022-10-22T15:17:50.278Z,21.20
2022-10-22T15:20:16.785Z,20.24
2022-10-22T15:22:43.553Z,19.88
2022-10-22T15:25:10.892Z,19.55
2022-10-22T15:27:37.321Z,18.51
2022-10-22T15:30:05.750Z,17.74
2022-10-22T15:32:33.953Z,17.66
2022-10-22T15:35:01.426Z,17.76
2022-10-22T15:37:27.893Z,17.07
2022-10-22T15:39:54.405Z,17.09
2022-10-22T15:42:20.909Z,16.61
2022-10-22T15:44:47.309Z,16.50
2022-10-22T15:47:13.730Z,15.99
2022-10-22T15:49:41.759Z,15.96
2022-10-22T15:52:09.134Z,15.79
2022-10-22T15:54:35.715Z,15.31
2022-10-22T15:57:03.428Z,14.92
2022-10-22T15:59:29.945Z,14.62
2022-10-22T16:01:56.377Z,14.36
2022-10-22T16:04:22.792Z,14.28
2022-10-22T16:06:52.645Z,14.22
2022-10-22T16:09:22.549Z,14.04
2022-10-22T16:11:50.353Z,14.01
2022-10-22T16:14:19.771Z,13.79
2022-10-22T16:16:50.112Z,13.72
2022-10-22T16:19:18.604Z,13.51
2022-10-22T16:21:45.368Z,13.30
2022-10-22T16:24:12.551Z,13.14
2022-10-22T16:26:39.017Z,13.00
2022-10-22T16:29:07.128Z,12.84
2022-10-22T16:31:33.971Z,12.69
2022-10-22T16:34:00.338Z,12.61
2022-10-22T16:36:26.815Z,12.53
2022-10-22T16:38:53.277Z,12.37
2022-10-22T16:41:21.828Z,12.34
2022-10-22T16:43:50.199Z,12.34
2022-10-22T16:46:18.925Z,12.35
2022-10-22T16:48:50.741Z,12.41
2022-10-22T16:51:23.238Z,12.38
2022-10-22T16:53:52.274Z,12.40
2022-10-22T16:56:19.014Z,12.31
2022-10-22T16:58:51.006Z,12.31
2022-10-22T17:01:19.490Z,12.33
2022-10-22T17:03:46.150Z,12.34
2022-10-22T17:06:12.824Z,12.35
2022-10-22T17:08:41.154Z,12.45
2022-10-22T17:11:09.826Z,12.47
2022-10-22T17:13:36.844Z,12.40
2022-10-22T17:16:09.012Z,12.17
2022-10-22T17:18:37.832Z,12.14
2022-10-22T17:21:05.680Z,12.09
2022-10-22T17:23:32.119Z,12.10
2022-10-22T17:26:00.952Z,11.96
2022-10-22T17:28:28.429Z,11.86
2022-10-22T17:31:28.606Z,11.56
2022-10-22T17:33:56.802Z,11.41
2022-10-22T17:36:24.871Z,11.35
2022-10-22T17:38:53.853Z,11.48
2022-10-22T17:41:22.892Z,11.41
2022-10-22T17:43:50.016Z,11.24
2022-10-22T17:46:25.059Z,11.14
2022-10-22T17:48:52.853Z,11.19
2022-10-22T17:51:20.405Z,11.29
2022-10-22T17:53:47.536Z,11.38
2022-10-22T17:56:20.343Z,11.50
2022-10-22T17:58:47.182Z,11.52
2022-10-22T18:01:25.813Z,11.53
2022-10-22T18:03:53.823Z,11.58
2022-10-22T18:06:20.664Z,11.63
2022-10-22T18:08:47.158Z,11.62
2022-10-22T18:11:17.781Z,11.62
2022-10-22T18:13:44.873Z,11.63
2022-10-22T18:16:12.178Z,11.57
2022-10-22T18:18:38.618Z,11.54
2022-10-22T18:21:05.223Z,11.58
2022-10-22T18:23:31.681Z,11.66
2022-10-22T18:25:58.101Z,11.67
2022-10-22T18:28:24.595Z,11.63
2022-10-22T18:30:51.021Z,11.62
2022-10-22T18:33:19.219Z,11.71
2022-10-22T18:35:46.173Z,11.73
2022-10-22T18:38:12.587Z,11.66
2022-10-22T18:40:48.135Z,11.58
2022-10-22T18:43:15.442Z,11.58
2022-10-22T18:45:45.181Z,11.49
2022-10-22T18:48:14.426Z,11.45
2022-10-22T18:50:40.923Z,11.45
2022-10-22T18:53:07.527Z,11.38
2022-10-22T18:55:37.793Z,11.32
2022-10-22T18:58:04.193Z,11.28
2022-10-22T19:00:30.804Z,11.26
2022-10-22T19:02:57.288Z,11.19
2022-10-22T19:05:23.696Z,11.14
2022-10-22T19:07:50.586Z,11.14
2022-10-22T19:10:17.837Z,11.10
2022-10-22T19:12:44.270Z,11.12
2022-10-22T19:15:10.803Z,11.10
2022-10-22T19:17:37.205Z,11.08
2022-10-22T19:20:04.159Z,11.14
2022-10-22T19:22:31.534Z,11.19
2022-10-22T19:24:58.805Z,11.16
2022-10-22T19:27:25.440Z,11.17
2022-10-22T19:29:51.854Z,11.22
2022-10-22T19:32:19.896Z,11.25
2022-10-22T19:34:47.070Z,11.29
2022-10-22T19:37:13.503Z,11.31
2022-10-22T19:39:39.891Z,11.39
2022-10-22T19:42:06.454Z,11.35
2022-10-22T19:44:32.978Z,11.34
2022-10-22T19:46:59.396Z,11.42
2022-10-22T19:49:25.853Z,11.45
2022-10-22T19:51:52.336Z,11.44
2022-10-22T19:54:19.548Z,11.48
2022-10-22T19:56:46.557Z,11.53
2022-10-22T19:59:14.811Z,11.54
2022-10-22T20:01:41.439Z,11.51
2022-10-22T20:04:07.996Z,11.51
2022-10-22T20:06:34.457Z,11.49
2022-10-22T20:09:00.981Z,11.42
2022-10-22T20:11:29.959Z,11.50
2022-10-22T20:13:57.173Z,11.50
2022-10-22T20:16:25.994Z,11.50
2022-10-22T20:18:52.926Z,11.53
2022-10-22T20:21:20.301Z,11.50
2022-10-22T20:23:48.199Z,11.45
2022-10-22T20:26:14.652Z,11.47
2022-10-22T20:28:41.123Z,11.49
2022-10-22T20:31:12.220Z,11.50
2022-10-22T20:33:39.068Z,11.49
2022-10-22T20:36:08.455Z,11.50
2022-10-22T20:41:07.992Z,11.62
2022-10-22T20:43:34.689Z,11.64
2022-10-22T20:46:02.152Z,11.67
2022-10-22T20:48:31.187Z,11.66
2022-10-22T20:50:58.944Z,11.57
2022-10-22T20:53:26.244Z,11.53
2022-10-22T20:55:56.714Z,11.43
2022-10-22T20:58:25.936Z,11.34
2022-10-22T21:00:55.037Z,11.21
2022-10-22T21:03:21.752Z,11.17
2022-10-22T21:05:48.412Z,11.11
2022-10-22T21:08:18.201Z,10.96
2022-10-22T21:10:49.066Z,10.86
2022-10-22T21:13:16.626Z,10.85
2022-10-22T21:15:43.073Z,10.84
2022-10-22T21:18:09.570Z,10.92
2022-10-22T21:20:38.212Z,11.03
2022-10-22T21:23:04.618Z,10.98
2022-10-22T21:25:31.364Z,10.95
2022-10-22T21:27:57.807Z,10.99
2022-10-22T21:30:24.329Z,11.00
2022-10-22T21:32:51.669Z,10.99
2022-10-22T21:35:18.133Z,11.09
2022-10-22T21:37:44.695Z,11.19
2022-10-22T21:40:11.834Z,11.43
2022-10-22T21:42:38.297Z,11.49
2022-10-22T21:45:10.484Z,11.47
2022-10-22T21:47:39.889Z,11.56
2022-10-22T21:50:06.729Z,11.63
2022-10-22T21:52:33.093Z,11.67
2022-10-22T21:54:59.489Z,11.66
2022-10-22T21:57:26.549Z,11.73
2022-10-22T21:59:52.948Z,11.71
2022-10-22T22:04:54.636Z,11.79
2022-10-22T22:07:22.087Z,11.87
2022-10-22T22:09:50.287Z,11.89
2022-10-22T22:12:17.542Z,11.91
2022-10-22T22:14:44.354Z,11.90
2022-10-22T22:17:10.925Z,11.86
2022-10-22T22:19:38.600Z,11.85
2022-10-22T22:22:05.000Z,11.83
2022-10-22T22:24:31.416Z,11.77
2022-10-22T22:26:57.813Z,11.74
2022-10-22T22:29:24.212Z,11.79
2022-10-22T22:31:50.640Z,11.84
2022-10-22T22:34:17.640Z,11.82
2022-10-22T22:36:46.863Z,11.75
2022-10-22T22:39:16.734Z,11.66
2022-10-22T22:41:44.268Z,11.66
2022-10-22T22:44:10.696Z,11.58
2022-10-22T22:46:37.605Z,11.50
2022-10-22T22:49:04.373Z,11.41
2022-10-22T22:51:30.870Z,11.31
2022-10-22T22:53:58.222Z,11.24
2022-10-22T22:56:27.765Z,11.20
2022-10-22T22:58:55.184Z,11.18
2022-10-22T23:01:24.442Z,11.18
2022-10-22T23:03:59.789Z,11.18
2022-10-22T23:06:27.860Z,11.12
2022-10-22T23:08:55.316Z,11.02
2022-10-22T23:11:22.962Z,10.95
2022-10-22T23:13:53.583Z,10.90
2022-10-22T23:16:22.219Z,10.86
2022-10-22T23:18:49.932Z,10.82
2022-10-22T23:21:19.113Z,10.75
2022-10-22T23:23:48.742Z,10.72
2022-10-22T23:26:19.729Z,10.68
2022-10-22T23:28:46.708Z,10.64
2022-10-22T23:31:14.892Z,10.61
2022-10-22T23:33:42.241Z,10.59
2022-10-22T23:36:09.355Z,10.60
2022-10-22T23:38:37.482Z,10.60
2022-10-22T23:41:05.087Z,10.58
2022-10-22T23:43:32.137Z,10.52
2022-10-22T23:45:58.583Z,10.52
2022-10-22T23:48:24.988Z,10.57
2022-10-22T23:53:22.780Z,10.61
2022-10-22T23:55:49.188Z,10.59
2022-10-22T23:58:15.685Z,10.49
